Time;durP1;ratioP1;P1;durP2;ratioP2;P2;SDS_P1;SDS_P2;PMS_P1;PMS_P2;Temp;Humidity;BMP_temperature;BMP_pressure;BME280_temperature;BME280_humidity;BME280_pressure;Samples;Min_cycle;Max_cycle;Signal;HPM_P1;HPM_P2
2022/02/12 00:00:37;;;;;;;;;;;;;;;;;;5063027;28;20039;-92
2022/02/12 00:03:03;;;;;;;;;;;;;;;;;;5063110;28;19979;-93
2022/02/12 00:05:29;;;;;;;;;;;;;;;;;;5053172;28;19925;-93
2022/02/12 00:07:55;;;;;;;;;;;;;;;;;;5063072;28;19928;-92
2022/02/12 00:10:22;;;;;;;;;;;;;;;;;;5062504;28;19932;-92
2022/02/12 00:12:48;;;;;;;;;;;;;;;;;;5062214;28;19998;-91
2022/02/12 00:15:15;;;;;;;;;;;;;;;;;;5062117;28;19951;-92
2022/02/12 00:17:41;;;;;;;;;;;;;;;;;;5062170;28;19934;-92
2022/02/12 00:20:08;;;;;;;;;;;;;;;;;;5062254;28;20006;-93
2022/02/12 00:22:34;;;;;;;;;;;;;;;;;;5062922;28;19979;-92
2022/02/12 00:25:01;;;;;;;;;;;;;;;;;;5062923;28;20675;-92
2022/02/12 00:27:27;;;;;;;;;;;;;;;;;;5061961;28;20467;-93
2022/02/12 00:29:53;;;;;;;;;;;;;;;;;;5061839;28;19932;-93
2022/02/12 00:32:19;;;;;;;;;;;;;;;;;;5061237;28;19929;-93
2022/02/12 00:34:46;;;;;;;;;;;;;;;;;;5052926;28;19933;-92
2022/02/12 00:37:12;;;;;;;;;;;;;;;;;;5057947;28;19974;-92
2022/02/12 00:39:39;;;;;;;;;;;;;;;;;;5062791;28;19928;-92
2022/02/12 00:42:05;;;;;;;;;;;;;;;;;;5062050;28;20504;-92
2022/02/12 00:44:31;;;;;;;;;;;;;;;;;;5062163;28;20297;-92
2022/02/12 00:46:57;;;;;;;;;;;;;;;;;;5061697;28;20576;-93
2022/02/12 00:49:24;;;;;;;;;;;;;;;;;;5062400;28;20399;-92
2022/02/12 00:51:50;;;;;;;;;;;;;;;;;;5062123;28;20038;-92
2022/02/12 00:54:17;;;;;;;;;;;;;;;;;;5062210;28;19925;-92
2022/02/12 00:56:43;;;;;;;;;;;;;;;;;;5061820;28;20371;-92
2022/02/12 00:59:09;;;;;;;;;;;;;;;;;;5062349;28;19986;-93
2022/02/12 01:01:36;;;;;;;;;;;;;;;;;;5062041;28;19947;-92
2022/02/12 01:04:02;;;;;;;;;;;;;;;;;;5059803;28;19956;-93
2022/02/12 01:06:28;;;;;;;;;;;;;;;;;;5050892;28;20353;-92
2022/02/12 01:08:55;;;;;;;;;;;;;;;;;;5061598;28;19925;-93
2022/02/12 01:11:21;;;;;;;;;;;;;;;;;;5061737;28;19929;-93
2022/02/12 01:13:47;;;;;;;;;;;;;;;;;;5044942;28;19972;-93
2022/02/12 01:16:13;;;;;;;;;;;;;;;;;;5048920;28;19978;-91
2022/02/12 01:18:40;;;;;;;;;;;;;;;;;;5061794;28;19940;-93
2022/02/12 01:21:06;;;;;;;;;;;;;;;;;;5061558;28;19978;-92
2022/02/12 01:23:32;;;;;;;;;;;;;;;;;;5061339;28;19979;-93
2022/02/12 01:25:58;;;;;;;;;;;;;;;;;;5061208;28;19924;-93
2022/02/12 01:28:25;;;;;;;;;;;;;;;;;;5060888;28;19925;-93
2022/02/12 01:30:51;;;;;;;;;;;;;;;;;;5061136;28;19933;-93
2022/02/12 01:33:17;;;;;;;;;;;;;;;;;;5061040;28;19951;-92
2022/02/12 01:35:43;;;;;;;;;;;;;;;;;;5046028;28;19925;-92
2022/02/12 01:38:09;;;;;;;;;;;;;;;;;;5063422;28;19928;-92
2022/02/12 01:40:36;;;;;;;;;;;;;;;;;;5065605;28;19929;-92
2022/02/12 01:43:02;;;;;;;;;;;;;;;;;;5065702;28;19929;-92
2022/02/12 01:45:28;;;;;;;;;;;;;;;;;;5064960;28;19925;-92
2022/02/12 01:47:54;;;;;;;;;;;;;;;;;;5064684;28;19994;-93
2022/02/12 01:50:21;;;;;;;;;;;;;;;;;;5065838;28;19928;-91
2022/02/12 01:52:47;;;;;;;;;;;;;;;;;;5081356;28;19928;-93
2022/02/12 01:55:13;;;;;;;;;;;;;;;;;;5084891;28;19924;-91
2022/02/12 01:57:39;;;;;;;;;;;;;;;;;;5068161;28;19925;-92
2022/02/12 02:00:06;;;;;;;;;;;;;;;;;;5063503;28;19951;-92
2022/02/12 02:02:32;;;;;;;;;;;;;;;;;;5062773;28;19929;-93
2022/02/12 02:04:58;;;;;;;;;;;;;;;;;;5065462;28;19924;-92
2022/02/12 02:07:24;;;;;;;;;;;;;;;;;;5051468;28;19929;-93
2022/02/12 02:09:51;;;;;;;;;;;;;;;;;;5044711;28;19960;-92
2022/02/12 02:12:17;;;;;;;;;;;;;;;;;;5057155;28;19925;-92
2022/02/12 02:14:43;;;;;;;;;;;;;;;;;;5064774;28;19948;-92
2022/02/12 02:17:09;;;;;;;;;;;;;;;;;;5064734;28;19924;-93
2022/02/12 02:19:36;;;;;;;;;;;;;;;;;;5064548;28;19951;-93
2022/02/12 02:22:02;;;;;;;;;;;;;;;;;;5064745;28;20430;-94
2022/02/12 02:24:28;;;;;;;;;;;;;;;;;;5064747;28;20413;-94
2022/02/12 02:26:54;;;;;;;;;;;;;;;;;;5063580;28;19997;-93
2022/02/12 02:29:21;;;;;;;;;;;;;;;;;;5064920;28;19989;-94
2022/02/12 02:31:47;;;;;;;;;;;;;;;;;;5065168;28;19925;-94
2022/02/12 02:34:13;;;;;;;;;;;;;;;;;;5064982;28;19943;-93
2022/02/12 02:36:39;;;;;;;;;;;;;;;;;;5064441;28;19982;-93
2022/02/12 02:39:05;;;;;;;;;;;;;;;;;;5064939;28;19924;-94
2022/02/12 02:41:32;;;;;;;;;;;;;;;;;;5064150;28;19990;-95
2022/02/12 02:43:58;;;;;;;;;;;;;;;;;;5064237;28;19933;-93
2022/02/12 02:46:24;;;;;;;;;;;;;;;;;;5064370;28;19924;-91
2022/02/12 02:48:50;;;;;;;;;;;;;;;;;;5062477;28;19945;-93
2022/02/12 02:56:44;;;;;;;;;;;;;;;;;;5062205;28;20427;-92
2022/02/12 02:59:11;;;;;;;;;;;;;;;;;;5063258;28;20402;-93
2022/02/12 03:01:37;;;;;;;;;;;;;;;;;;5064667;28;20016;-93
2022/02/12 03:04:03;;;;;;;;;;;;;;;;;;5063687;28;19986;-92
2022/02/12 03:06:30;;;;;;;;;;;;;;;;;;5062461;28;19982;-92
2022/02/12 03:08:56;;;;;;;;;;;;;;;;;;5063357;28;19935;-93
2022/02/12 03:11:22;;;;;;;;;;;;;;;;;;5063766;28;19925;-92
2022/02/12 03:13:48;;;;;;;;;;;;;;;;;;5063686;28;19925;-91
2022/02/12 03:16:15;;;;;;;;;;;;;;;;;;5063800;28;19947;-91
2022/02/12 03:18:41;;;;;;;;;;;;;;;;;;5063957;28;19929;-92
2022/02/12 03:21:07;;;;;;;;;;;;;;;;;;5043455;28;19953;-93
2022/02/12 03:23:33;;;;;;;;;;;;;;;;;;5061866;28;19928;-92
2022/02/12 03:26:00;;;;;;;;;;;;;;;;;;5062105;28;19924;-92
2022/02/12 03:28:26;;;;;;;;;;;;;;;;;;5061811;28;19929;-92
2022/02/12 03:30:52;;;;;;;;;;;;;;;;;;5062081;28;19929;-91
2022/02/12 03:33:18;;;;;;;;;;;;;;;;;;5062712;28;19928;-92
2022/02/12 03:35:45;;;;;;;;;;;;;;;;;;5063459;28;20639;-92
2022/02/12 03:38:12;;;;;;;;;;;;;;;;;;5063259;28;19929;-92
2022/02/12 03:40:38;;;;;;;;;;;;;;;;;;5063121;28;19928;-92
2022/02/12 03:43:04;;;;;;;;;;;;;;;;;;5061384;28;19925;-92
2022/02/12 03:45:30;;;;;;;;;;;;;;;;;;5063583;28;20424;-92
2022/02/12 03:47:57;;;;;;;;;;;;;;;;;;5063047;28;20422;-92
2022/02/12 03:50:23;;;;;;;;;;;;;;;;;;5062931;28;19925;-92
2022/02/12 03:52:50;;;;;;;;;;;;;;;;;;5062528;28;20435;-94
2022/02/12 03:55:16;;;;;;;;;;;;;;;;;;5063629;28;19924;-92
2022/02/12 03:57:42;;;;;;;;;;;;;;;;;;5062652;28;20019;-92
2022/02/12 04:00:09;;;;;;;;;;;;;;;;;;5062376;28;19951;-91
2022/02/12 04:02:35;;;;;;;;;;;;;;;;;;5061794;28;19924;-93
2022/02/12 04:05:02;;;;;;;;;;;;;;;;;;5052136;28;19925;-92
2022/02/12 04:07:28;;;;;;;;;;;;;;;;;;5049993;28;19933;-92
2022/02/12 04:09:54;;;;;;;;;;;;;;;;;;5063219;28;19975;-93
2022/02/12 04:12:20;;;;;;;;;;;;;;;;;;5062665;28;19928;-93
2022/02/12 04:14:47;;;;;;;;;;;;;;;;;;5063125;28;19929;-91
2022/02/12 04:17:13;;;;;;;;;;;;;;;;;;5062825;28;19932;-93
2022/02/12 04:19:39;;;;;;;;;;;;;;;;;;5061818;28;19928;-93
2022/02/12 04:22:05;;;;;;;;;;;;;;;;;;5060203;28;19925;-92
2022/02/12 04:24:31;;;;;;;;;;;;;;;;;;5062350;28;19933;-91
2022/02/12 04:26:58;;;;;;;;;;;;;;;;;;5062098;28;19929;-92
2022/02/12 04:29:24;;;;;;;;;;;;;;;;;;5061986;28;19929;-92
2022/02/12 04:31:50;;;;;;;;;;;;;;;;;;5060771;28;20047;-92
2022/02/12 04:34:16;;;;;;;;;;;;;;;;;;5056923;28;19925;-92
2022/02/12 04:36:43;;;;;;;;;;;;;;;;;;5040446;28;19925;-92
2022/02/12 04:39:09;;;;;;;;;;;;;;;;;;5060295;28;19947;-92
2022/02/12 04:41:35;;;;;;;;;;;;;;;;;;5061011;28;19952;-93
2022/02/12 04:44:01;;;;;;;;;;;;;;;;;;5061446;28;19955;-92
2022/02/12 04:46:28;;;;;;;;;;;;;;;;;;5062191;28;19939;-93
2022/02/12 04:48:54;;;;;;;;;;;;;;;;;;5062010;28;20002;-92
2022/02/12 04:51:20;;;;;;;;;;;;;;;;;;5060939;28;19924;-92
2022/02/12 04:53:48;;;;;;;;;;;;;;;;;;5061297;28;19925;-93
2022/02/12 04:56:14;;;;;;;;;;;;;;;;;;5061503;28;19982;-92
2022/02/12 04:58:40;;;;;;;;;;;;;;;;;;5061658;28;19929;-92
2022/02/12 05:01:19;;;;;;;;;;;;;;;;;;5061849;28;19925;-92
2022/02/12 05:03:46;;;;;;;;;;;;;;;;;;5061717;28;19929;-91
2022/02/12 05:06:12;;;;;;;;;;;;;;;;;;5041430;28;19952;-91
2022/02/12 05:08:40;;;;;;;;;;;;;;;;;;5055170;28;19947;-93
2022/02/12 05:11:06;;;;;;;;;;;;;;;;;;5060637;28;20007;-92
2022/02/12 05:13:32;;;;;;;;;;;;;;;;;;5060450;28;19925;-92
2022/02/12 05:15:59;;;;;;;;;;;;;;;;;;5062404;28;19925;-92
2022/02/12 05:18:25;;;;;;;;;;;;;;;;;;5061684;28;19982;-92
2022/02/12 05:20:51;;;;;;;;;;;;;;;;;;5061216;28;19987;-92
2022/02/12 05:23:18;;;;;;;;;;;;;;;;;;5056454;28;19975;-92
2022/02/12 05:25:44;;;;;;;;;;;;;;;;;;5061193;28;19929;-92
2022/02/12 05:28:10;;;;;;;;;;;;;;;;;;5061666;28;19958;-93
2022/02/12 05:30:36;;;;;;;;;;;;;;;;;;5061779;28;19947;-92
2022/02/12 05:33:03;;;;;;;;;;;;;;;;;;5056917;28;19947;-92
2022/02/12 05:35:29;;;;;;;;;;;;;;;;;;5060530;28;19925;-92
2022/02/12 05:37:55;;;;;;;;;;;;;;;;;;5059673;28;19929;-92
2022/02/12 05:40:21;;;;;;;;;;;;;;;;;;5059373;28;19928;-92
2022/02/12 05:42:48;;;;;;;;;;;;;;;;;;5059055;28;19960;-91
2022/02/12 05:45:14;;;;;;;;;;;;;;;;;;5061555;28;19928;-92
2022/02/12 05:47:40;;;;;;;;;;;;;;;;;;5061987;28;19924;-92
2022/02/12 05:50:06;;;;;;;;;;;;;;;;;;5050413;28;19925;-92
2022/02/12 05:52:33;;;;;;;;;;;;;;;;;;5043475;28;19948;-92
2022/02/12 05:54:59;;;;;;;;;;;;;;;;;;5060912;28;19947;-92
2022/02/12 05:57:25;;;;;;;;;;;;;;;;;;5060158;28;19929;-92
2022/02/12 05:59:51;;;;;;;;;;;;;;;;;;5060235;28;19951;-92
2022/02/12 06:02:18;;;;;;;;;;;;;;;;;;5068013;28;19928;-92
2022/02/12 06:04:44;;;;;;;;;;;;;;;;;;5060456;28;19928;-92
2022/02/12 06:07:11;;;;;;;;;;;;;;;;;;5061115;28;19925;-92
2022/02/12 06:09:37;;;;;;;;;;;;;;;;;;5060952;28;19936;-91
2022/02/12 06:12:03;;;;;;;;;;;;;;;;;;5061304;28;19925;-92
2022/02/12 06:14:29;;;;;;;;;;;;;;;;;;5060895;28;19947;-94
2022/02/12 06:16:58;;;;;;;;;;;;;;;;;;5059456;28;19955;-92
2022/02/12 06:19:24;;;;;;;;;;;;;;;;;;5058956;28;19925;-93
2022/02/12 06:21:50;;;;;;;;;;;;;;;;;;5061123;28;19929;-92
2022/02/12 06:24:16;;;;;;;;;;;;;;;;;;5062044;28;19929;-93
2022/02/12 06:26:46;;;;;;;;;;;;;;;;;;5064227;28;20443;-92
2022/02/12 06:29:12;;;;;;;;;;;;;;;;;;5065012;28;19964;-94
2022/02/12 06:31:38;;;;;;;;;;;;;;;;;;5064907;28;20007;-92
2022/02/12 06:34:05;;;;;;;;;;;;;;;;;;5064668;28;19924;-92
2022/02/12 06:36:31;;;;;;;;;;;;;;;;;;5064516;28;19948;-92
2022/02/12 06:38:57;;;;;;;;;;;;;;;;;;5064535;28;19928;-92
2022/02/12 06:41:23;;;;;;;;;;;;;;;;;;5064472;28;19928;-91
2022/02/12 06:43:50;;;;;;;;;;;;;;;;;;5063966;28;19925;-92
2022/02/12 06:46:16;;;;;;;;;;;;;;;;;;5062495;28;19925;-92
2022/02/12 06:48:42;;;;;;;;;;;;;;;;;;5062757;28;19928;-92
2022/02/12 06:51:08;;;;;;;;;;;;;;;;;;5044808;28;19952;-91
2022/02/12 06:53:35;;;;;;;;;;;;;;;;;;5051260;28;19925;-91
2022/02/12 06:56:01;;;;;;;;;;;;;;;;;;5061604;28;19928;-94
2022/02/12 06:58:27;;;;;;;;;;;;;;;;;;5061732;28;20002;-93
2022/02/12 07:00:53;;;;;;;;;;;;;;;;;;5064069;28;19933;-93
2022/02/12 07:03:20;;;;;;;;;;;;;;;;;;5064447;28;20042;-93
2022/02/12 07:05:46;;;;;;;;;;;;;;;;;;5048249;28;19929;-92
2022/02/12 07:08:12;;;;;;;;;;;;;;;;;;5063962;28;19928;-93
2022/02/12 07:10:38;;;;;;;;;;;;;;;;;;5062370;28;19925;-92
2022/02/12 07:13:05;;;;;;;;;;;;;;;;;;5063536;28;19947;-92
2022/02/12 07:15:31;;;;;;;;;;;;;;;;;;5063848;28;19925;-93
2022/02/12 07:17:57;;;;;;;;;;;;;;;;;;5063037;28;20397;-92
2022/02/12 07:20:23;;;;;;;;;;;;;;;;;;5062206;28;20383;-92
2022/02/12 07:22:50;;;;;;;;;;;;;;;;;;5062972;28;19933;-92
2022/02/12 07:25:16;;;;;;;;;;;;;;;;;;5061213;28;20389;-93
2022/02/12 07:27:42;;;;;;;;;;;;;;;;;;5061096;28;19932;-92
2022/02/12 07:30:08;;;;;;;;;;;;;;;;;;5062011;28;19925;-91
2022/02/12 07:32:35;;;;;;;;;;;;;;;;;;5062007;28;19949;-92
2022/02/12 07:35:01;;;;;;;;;;;;;;;;;;5052041;28;19925;-92
2022/02/12 07:37:27;;;;;;;;;;;;;;;;;;5042735;28;19933;-92
2022/02/12 07:39:53;;;;;;;;;;;;;;;;;;5058760;28;19951;-93
2022/02/12 07:42:19;;;;;;;;;;;;;;;;;;5061899;28;19929;-91
2022/02/12 07:44:46;;;;;;;;;;;;;;;;;;5063059;28;19929;-92
2022/02/12 07:47:12;;;;;;;;;;;;;;;;;;5062617;28;19924;-90
2022/02/12 07:49:38;;;;;;;;;;;;;;;;;;5061333;28;19984;-92
2022/02/12 07:52:05;;;;;;;;;;;;;;;;;;5061593;28;19924;-91
2022/02/12 07:54:31;;;;;;;;;;;;;;;;;;5062000;28;20019;-91
2022/02/12 07:56:59;;;;;;;;;;;;;;;;;;5062398;28;19955;-90
2022/02/12 07:59:25;;;;;;;;;;;;;;;;;;5061957;28;19928;-92
2022/02/12 08:01:51;;;;;;;;;;;;;;;;;;5062162;28;20023;-91
2022/02/12 08:04:17;;;;;;;;;;;;;;;;;;5058636;28;19929;-91
2022/02/12 08:09:42;;;;;;;;;;;;;;;;;;5016985;28;19938;-91
2022/02/12 08:12:13;;;;;;;;;;;;;;;;;;5018949;28;19960;-91
2022/02/12 08:14:39;;;;;;;;;;;;;;;;;;5037690;28;19957;-91
2022/02/12 08:17:05;;;;;;;;;;;;;;;;;;5060234;28;19929;-91
2022/02/12 08:19:32;;;;;;;;;;;;;;;;;;5060727;28;19929;-91
2022/02/12 08:21:58;;;;;;;;;;;;;;;;;;5061839;28;20073;-92
2022/02/12 08:24:24;;;;;;;;;;;;;;;;;;5061908;28;20010;-92
2022/02/12 08:26:51;;;;;;;;;;;;;;;;;;5060433;28;19928;-92
2022/02/12 08:29:17;;;;;;;;;;;;;;;;;;5061220;28;20010;-91
2022/02/12 08:31:43;;;;;;;;;;;;;;;;;;5062138;28;20057;-92
2022/02/12 08:34:09;;;;;;;;;;;;;;;;;;5058128;28;19925;-92
2022/02/12 08:36:36;;;;;;;;;;;;;;;;;;5039881;28;19925;-93
2022/02/12 08:39:02;;;;;;;;;;;;;;;;;;5045077;28;19925;-92
2022/02/12 08:41:28;;;;;;;;;;;;;;;;;;5060175;28;19951;-90
2022/02/12 08:43:54;;;;;;;;;;;;;;;;;;5054696;28;19951;-91
2022/02/12 08:46:21;;;;;;;;;;;;;;;;;;5058791;28;19928;-92
2022/02/12 08:48:47;;;;;;;;;;;;;;;;;;5060416;28;19955;-91
2022/02/12 08:51:13;;;;;;;;;;;;;;;;;;5041188;28;19955;-91
2022/02/12 08:53:39;;;;;;;;;;;;;;;;;;5042828;28;20480;-91
2022/02/12 08:56:06;;;;;;;;;;;;;;;;;;5060483;28;20377;-91
2022/02/12 08:58:33;;;;;;;;;;;;;;;;;;5060257;28;19951;-91
2022/02/12 09:00:59;;;;;;;;;;;;;;;;;;5058394;28;19929;-92
2022/02/12 09:03:26;;;;;;;;;;;;;;;;;;5039463;28;19933;-93
2022/02/12 09:05:53;;;;;;;;;;;;;;;;;;5059961;28;19970;-96
2022/02/12 09:08:22;;;;;;;;;;;;;;;;;;5064155;28;20640;-94
2022/02/12 09:10:48;;;;;;;;;;;;;;;;;;5062971;28;19925;-93
2022/02/12 09:13:16;;;;;;;;;;;;;;;;;;5059685;28;19925;-96
2022/02/12 09:15:42;;;;;;;;;;;;;;;;;;5056212;28;19940;-96
2022/02/12 09:18:08;;;;;;;;;;;;;;;;;;5053016;28;19928;-95
2022/02/12 09:20:35;;;;;;;;;;;;;;;;;;5050471;28;19915;-94
2022/02/12 09:23:01;;;;;;;;;;;;;;;;;;5042185;28;19979;-96
2022/02/12 09:25:27;;;;;;;;;;;;;;;;;;5058267;28;20019;-92
2022/02/12 09:27:54;;;;;;;;;;;;;;;;;;5063337;28;19933;-95
2022/02/12 09:30:21;;;;;;;;;;;;;;;;;;5062369;28;19909;-94
2022/02/12 09:32:50;;;;;;;;;;;;;;;;;;5064506;28;19925;-96
2022/02/12 09:35:16;;;;;;;;;;;;;;;;;;5065163;28;19967;-96
2022/02/12 09:37:45;;;;;;;;;;;;;;;;;;5062302;28;20320;-96
2022/02/12 09:40:11;;;;;;;;;;;;;;;;;;5053798;28;19925;-94
2022/02/12 09:42:38;;;;;;;;;;;;;;;;;;5044521;28;19929;-95
2022/02/12 09:45:04;;;;;;;;;;;;;;;;;;5052963;28;19928;-92
2022/02/12 09:47:31;;;;;;;;;;;;;;;;;;5062605;28;19925;-96
2022/02/12 09:49:57;;;;;;;;;;;;;;;;;;5063361;28;19951;-95
2022/02/12 09:52:24;;;;;;;;;;;;;;;;;;5064197;28;19960;-94
2022/02/12 09:54:50;;;;;;;;;;;;;;;;;;5064906;28;20381;-96
2022/02/12 09:57:17;;;;;;;;;;;;;;;;;;5062993;28;19929;-92
2022/02/12 09:59:44;;;;;;;;;;;;;;;;;;5067623;28;19978;-93
2022/02/12 10:02:11;;;;;;;;;;;;;;;;;;5063626;28;19928;-93
2022/02/12 10:04:37;;;;;;;;;;;;;;;;;;5110019;22;20005;-96
2022/02/12 10:07:03;;;;;;;;;;;;;;;;;;5084939;28;19935;-93
2022/02/12 10:09:30;;;;;;;;;;;;;;;;;;5084828;28;19954;-93
2022/02/12 10:11:56;;;;;;;;;;;;;;;;;;5084814;28;19954;-95
2022/02/12 10:14:23;;;;;;;;;;;;;;;;;;5084744;28;19929;-96
2022/02/12 10:16:49;;;;;;;;;;;;;;;;;;5101280;28;19946;-94
2022/02/12 10:19:16;;;;;;;;;;;;;;;;;;5101875;28;19933;-93
2022/02/12 10:21:42;;;;;;;;;;;;;;;;;;5085571;28;19947;-96
2022/02/12 10:24:08;;;;;;;;;;;;;;;;;;5086859;28;19928;-94
2022/02/12 10:26:39;;;;;;;;;;;;;;;;;;5086655;28;19925;-95
2022/02/12 10:29:12;;;;;;;;;;;;;;;;;;5084973;28;19928;-94
2022/02/12 10:31:39;;;;;;;;;;;;;;;;;;5063393;28;19932;-94
2022/02/12 10:34:08;;;;;;;;;;;;;;;;;;5068055;28;19951;-94
2022/02/12 10:36:34;;;;;;;;;;;;;;;;;;5069250;28;19925;-93
2022/02/12 10:39:02;;;;;;;;;;;;;;;;;;5067049;28;19924;-96
2022/02/12 10:41:28;;;;;;;;;;;;;;;;;;5087660;28;19925;-96
2022/02/12 10:43:55;;;;;;;;;;;;;;;;;;5085924;28;19982;-93
2022/02/12 10:46:21;;;;;;;;;;;;;;;;;;5086338;28;19947;-95
2022/02/12 10:48:47;;;;;;;;;;;;;;;;;;5082258;28;19924;-92
2022/02/12 10:51:15;;;;;;;;;;;;;;;;;;5086545;28;20047;-94
2022/02/12 10:53:42;;;;;;;;;;;;;;;;;;5088685;28;19936;-96
2022/02/12 10:56:08;;;;;;;;;;;;;;;;;;5085081;28;19924;-94
2022/02/12 10:58:36;;;;;;;;;;;;;;;;;;5084849;28;19924;-95
2022/02/12 11:01:03;;;;;;;;;;;;;;;;;;5086850;28;19928;-94
2022/02/12 11:03:29;;;;;;;;;;;;;;;;;;5084739;28;20023;-93
2022/02/12 11:05:56;;;;;;;;;;;;;;;;;;5083139;28;19933;-96
2022/02/12 11:08:22;;;;;;;;;;;;;;;;;;5085751;28;19935;-95
2022/02/12 11:10:48;;;;;;;;;;;;;;;;;;5084358;28;19946;-96
2022/02/12 11:13:15;;;;;;;;;;;;;;;;;;5085639;28;20000;-95
2022/02/12 11:15:41;;;;;;;;;;;;;;;;;;5083293;28;19990;-94
2022/02/12 11:18:10;;;;;;;;;;;;;;;;;;5084391;28;20441;-96
2022/02/12 11:20:36;;;;;;;;;;;;;;;;;;5083461;28;19928;-93
2022/02/12 11:23:03;;;;;;;;;;;;;;;;;;5080935;28;19955;-92
2022/02/12 11:25:30;;;;;;;;;;;;;;;;;;5087325;28;19951;-96
2022/02/12 11:27:58;;;;;;;;;;;;;;;;;;5084546;28;19928;-92
2022/02/12 11:30:25;;;;;;;;;;;;;;;;;;5083117;28;19936;-92
2022/02/12 11:32:51;;;;;;;;;;;;;;;;;;5082111;28;19993;-94
2022/02/12 11:35:17;;;;;;;;;;;;;;;;;;5084378;28;19924;-92
2022/02/12 11:37:44;;;;;;;;;;;;;;;;;;5085828;28;19955;-92
2022/02/12 11:40:11;;;;;;;;;;;;;;;;;;5084158;28;20011;-93
2022/02/12 11:42:38;;;;;;;;;;;;;;;;;;5081964;28;19982;-92
2022/02/12 11:45:04;;;;;;;;;;;;;;;;;;5082430;28;19928;-92
2022/02/12 11:47:31;;;;;;;;;;;;;;;;;;5084844;28;19932;-95
2022/02/12 11:49:57;;;;;;;;;;;;;;;;;;5093761;22;19924;-96
2022/02/12 11:52:28;;;;;;;;;;;;;;;;;;5085467;28;19950;-94
2022/02/12 11:55:00;;;;;;;;;;;;;;;;;;5087219;28;19984;-95
2022/02/12 11:57:28;;;;;;;;;;;;;;;;;;5085216;28;20327;-95
2022/02/12 11:59:55;;;;;;;;;;;;;;;;;;5084075;28;19946;-94
2022/02/12 12:02:22;;;;;;;;;;;;;;;;;;5083470;28;19932;-96
2022/02/12 12:04:48;;;;;;;;;;;;;;;;;;5084206;28;19924;-96
2022/02/12 12:07:14;;;;;;;;;;;;;;;;;;5086938;28;19928;-96
2022/02/12 12:09:41;;;;;;;;;;;;;;;;;;5087173;28;20110;-94
2022/02/12 12:12:07;;;;;;;;;;;;;;;;;;5084686;28;19925;-95
2022/02/12 12:14:35;;;;;;;;;;;;;;;;;;5084205;28;19928;-93
2022/02/12 12:17:02;;;;;;;;;;;;;;;;;;5086938;28;19951;-96
2022/02/12 12:19:28;;;;;;;;;;;;;;;;;;5088818;28;19975;-96
2022/02/12 12:21:56;;;;;;;;;;;;;;;;;;5085475;28;19924;-95
2022/02/12 12:27:02;;;;;;;;;;;;;;;;;;5082349;28;20288;-95
2022/02/12 12:32:15;;;;;;;;;;;;;;;;;;5088867;28;19974;-96
2022/02/12 12:34:41;;;;;;;;;;;;;;;;;;5084454;28;19928;-95
2022/02/12 12:37:07;;;;;;;;;;;;;;;;;;5081625;28;19960;-93
2022/02/12 12:39:33;;;;;;;;;;;;;;;;;;5081257;28;19924;-96
2022/02/12 12:42:00;;;;;;;;;;;;;;;;;;5079654;28;19999;-96
2022/02/12 12:44:30;;;;;;;;;;;;;;;;;;5082190;28;19924;-96
2022/02/12 12:46:56;;;;;;;;;;;;;;;;;;5079028;28;19929;-94
2022/02/12 12:49:22;;;;;;;;;;;;;;;;;;5080468;28;19932;-96
2022/02/12 12:51:49;;;;;;;;;;;;;;;;;;5078396;28;19928;-95
2022/02/12 12:54:15;;;;;;;;;;;;;;;;;;5081092;28;19928;-95
2022/02/12 12:56:41;;;;;;;;;;;;;;;;;;5085012;28;19924;-96
2022/02/12 12:59:07;;;;;;;;;;;;;;;;;;5080074;28;20339;-94
2022/02/12 13:01:34;;;;;;;;;;;;;;;;;;5081104;28;20671;-94
2022/02/12 13:04:00;;;;;;;;;;;;;;;;;;5080252;28;20029;-95
2022/02/12 13:06:26;;;;;;;;;;;;;;;;;;5077450;28;19925;-93
2022/02/12 13:08:52;;;;;;;;;;;;;;;;;;5081741;28;19912;-93
2022/02/12 13:11:19;;;;;;;;;;;;;;;;;;5078526;28;19951;-96
2022/02/12 13:13:45;;;;;;;;;;;;;;;;;;5083581;28;19925;-96
2022/02/12 13:16:13;;;;;;;;;;;;;;;;;;5137553;22;19931;-96
2022/02/12 13:18:41;;;;;;;;;;;;;;;;;;5123088;28;20000;-96
2022/02/12 13:21:07;;;;;;;;;;;;;;;;;;5117477;28;19928;-96
2022/02/12 13:23:36;;;;;;;;;;;;;;;;;;5103103;28;19928;-96
2022/02/12 13:26:03;;;;;;;;;;;;;;;;;;5123378;28;19931;-96
2022/02/12 13:28:30;;;;;;;;;;;;;;;;;;5100261;22;19924;-95
2022/02/12 13:30:56;;;;;;;;;;;;;;;;;;5066001;28;19955;-93
2022/02/12 13:33:22;;;;;;;;;;;;;;;;;;5065806;28;19925;-94
2022/02/12 13:35:50;;;;;;;;;;;;;;;;;;5068676;28;19929;-96
2022/02/12 13:38:22;;;;;;;;;;;;;;;;;;5066407;28;19948;-94
2022/02/12 13:40:48;;;;;;;;;;;;;;;;;;5069272;28;19935;-96
2022/02/12 13:43:16;;;;;;;;;;;;;;;;;;5067309;28;19947;-95
2022/02/12 13:45:42;;;;;;;;;;;;;;;;;;5070210;28;19931;-94
2022/02/12 13:48:11;;;;;;;;;;;;;;;;;;5087220;28;19924;-95
2022/02/12 13:50:39;;;;;;;;;;;;;;;;;;5072686;28;19935;-96
2022/02/12 13:53:07;;;;;;;;;;;;;;;;;;5052926;28;19929;-92
2022/02/12 13:55:33;;;;;;;;;;;;;;;;;;5066372;28;19915;-95
2022/02/12 13:58:01;;;;;;;;;;;;;;;;;;5066914;28;20045;-95
2022/02/12 14:00:27;;;;;;;;;;;;;;;;;;5068079;28;20473;-95
2022/02/12 14:02:54;;;;;;;;;;;;;;;;;;5086699;28;19997;-96
2022/02/12 14:05:21;;;;;;;;;;;;;;;;;;5076205;28;20435;-95
2022/02/12 14:07:48;;;;;;;;;;;;;;;;;;5085347;28;19970;-96
2022/02/12 14:10:14;;;;;;;;;;;;;;;;;;5072334;28;19928;-96
2022/02/12 14:12:40;;;;;;;;;;;;;;;;;;5088248;28;19928;-96
2022/02/12 14:15:07;;;;;;;;;;;;;;;;;;5088996;28;19924;-96
2022/02/12 14:17:33;;;;;;;;;;;;;;;;;;5073274;28;19932;-96
2022/02/12 14:19:59;;;;;;;;;;;;;;;;;;5069375;28;19925;-95
2022/02/12 14:22:25;;;;;;;;;;;;;;;;;;5082009;28;20138;-93
2022/02/12 14:24:52;;;;;;;;;;;;;;;;;;5088314;28;19932;-96
2022/02/12 14:27:19;;;;;;;;;;;;;;;;;;5085937;28;20342;-96
2022/02/12 14:29:45;;;;;;;;;;;;;;;;;;5086631;28;19924;-96
2022/02/12 14:32:11;;;;;;;;;;;;;;;;;;5076570;28;19929;-96
2022/02/12 14:37:21;;;;;;;;;;;;;;;;;;5109514;23;19981;-96
2022/02/12 14:39:47;;;;;;;;;;;;;;;;;;5106022;28;19924;-96
2022/02/12 14:42:14;;;;;;;;;;;;;;;;;;5103753;28;19928;-95
2022/02/12 14:44:43;;;;;;;;;;;;;;;;;;5091561;28;19952;-96
2022/02/12 14:47:09;;;;;;;;;;;;;;;;;;5099620;28;20367;-96
2022/02/12 14:49:35;;;;;;;;;;;;;;;;;;5107517;22;19956;-96
2022/02/12 14:52:02;;;;;;;;;;;;;;;;;;5127344;28;19924;-96
2022/02/12 14:54:28;;;;;;;;;;;;;;;;;;5126961;28;19935;-96
2022/02/12 14:56:55;;;;;;;;;;;;;;;;;;5112101;28;19945;-96
2022/02/12 14:59:24;;;;;;;;;;;;;;;;;;5131333;28;19956;-96
2022/02/12 15:01:51;;;;;;;;;;;;;;;;;;5122452;28;19952;-95
2022/02/12 15:04:17;;;;;;;;;;;;;;;;;;5125455;28;19934;-95
2022/02/12 15:06:43;;;;;;;;;;;;;;;;;;5123691;28;19988;-96
2022/02/12 15:09:10;;;;;;;;;;;;;;;;;;5124290;28;19945;-96
2022/02/12 15:11:36;;;;;;;;;;;;;;;;;;5124136;28;19935;-96
2022/02/12 15:14:06;;;;;;;;;;;;;;;;;;5127203;28;19946;-96
2022/02/12 15:16:33;;;;;;;;;;;;;;;;;;5126370;28;19934;-94
2022/02/12 15:19:00;;;;;;;;;;;;;;;;;;5121600;28;20508;-95
2022/02/12 15:21:26;;;;;;;;;;;;;;;;;;5123817;28;19924;-95
2022/02/12 15:23:53;;;;;;;;;;;;;;;;;;5122196;28;19928;-96
2022/02/12 15:26:19;;;;;;;;;;;;;;;;;;5124608;28;19923;-96
2022/02/12 15:28:45;;;;;;;;;;;;;;;;;;5122758;28;19928;-95
2022/02/12 15:31:12;;;;;;;;;;;;;;;;;;5130039;28;19968;-96
2022/02/12 15:33:40;;;;;;;;;;;;;;;;;;5136053;28;19907;-96
2022/02/12 15:36:06;;;;;;;;;;;;;;;;;;5136580;28;19971;-96
2022/02/12 15:38:33;;;;;;;;;;;;;;;;;;5136286;28;19930;-96
2022/02/12 15:41:00;;;;;;;;;;;;;;;;;;5126783;28;19939;-96
2022/02/12 15:43:27;;;;;;;;;;;;;;;;;;5127442;28;19924;-96
2022/02/12 15:45:53;;;;;;;;;;;;;;;;;;5132728;28;19946;-96
2022/02/12 15:48:23;;;;;;;;;;;;;;;;;;5232514;22;19928;-97
2022/02/12 15:50:49;;;;;;;;;;;;;;;;;;5088361;28;19979;-96
2022/02/12 15:53:15;;;;;;;;;;;;;;;;;;5098585;28;19954;-96
2022/02/12 15:55:42;;;;;;;;;;;;;;;;;;5101192;28;19928;-96
2022/02/12 15:58:09;;;;;;;;;;;;;;;;;;5103837;28;19928;-96
2022/02/12 16:00:35;;;;;;;;;;;;;;;;;;5106089;28;19912;-96
2022/02/12 16:03:03;;;;;;;;;;;;;;;;;;5117006;28;19924;-96
2022/02/12 16:05:36;;;;;;;;;;;;;;;;;;5169921;22;19923;-96
2022/02/12 16:08:03;;;;;;;;;;;;;;;;;;5120144;28;19953;-96
2022/02/12 16:10:31;;;;;;;;;;;;;;;;;;5120521;28;19908;-96
2022/02/12 16:12:58;;;;;;;;;;;;;;;;;;5109556;28;19924;-96
2022/02/12 16:15:25;;;;;;;;;;;;;;;;;;5114527;28;19931;-96
2022/02/12 16:17:51;;;;;;;;;;;;;;;;;;5107466;28;19931;-96
2022/02/12 16:20:18;;;;;;;;;;;;;;;;;;5111390;28;19915;-96
2022/02/12 16:22:44;;;;;;;;;;;;;;;;;;5105133;28;20038;-96
2022/02/12 16:25:11;;;;;;;;;;;;;;;;;;5093697;28;19932;-96
2022/02/12 16:27:38;;;;;;;;;;;;;;;;;;5100355;28;20283;-96
2022/02/12 16:30:05;;;;;;;;;;;;;;;;;;5101381;28;20022;-96
2022/02/12 16:32:31;;;;;;;;;;;;;;;;;;5104469;28;19928;-96
2022/02/12 16:34:58;;;;;;;;;;;;;;;;;;5098615;28;19925;-96
2022/02/12 16:37:24;;;;;;;;;;;;;;;;;;5083889;28;19992;-96
2022/02/12 16:39:51;;;;;;;;;;;;;;;;;;5082329;28;19933;-95
2022/02/12 16:42:17;;;;;;;;;;;;;;;;;;5088700;28;19924;-96
2022/02/12 16:44:43;;;;;;;;;;;;;;;;;;5098922;28;19934;-96
2022/02/12 16:47:10;;;;;;;;;;;;;;;;;;5104949;28;19945;-96
2022/02/12 16:49:39;;;;;;;;;;;;;;;;;;5103168;28;19928;-96
2022/02/12 16:54:51;;;;;;;;;;;;;;;;;;5115398;28;20015;-96
2022/02/12 16:57:17;;;;;;;;;;;;;;;;;;5115590;28;19927;-95
2022/02/12 16:59:43;;;;;;;;;;;;;;;;;;5120933;28;19936;-96